Wichita Falls, TX (76307)

2:36 PM CDT on May 05, 2015 (GMT -0500)
KTXWICHI5 | | Change Station
CLOSE
Current Station
Personal Weather Station
Location: WichitaFalls, TX
Elevation: 991 ft
Nearby Weather Stations

Elev 991 ft 33.86 °N, 98.49 °W | Updated 9 minutes ago

Thunderstorm
Thunderstorm
65.7 °F
Feels Like 65.7 °F
N
0.0
Wind Variable Wind from SSW

Today
High -- | Low -- °F
--% Chance of Precip.
Yesterday
High -- | Low -- °F
Precip. -- in
6:41 AM 8:20 PM
Full, 97% visible
Pressure 29.95 in
Visibility 2.0 miles
Clouds Scattered Clouds 1700 ft
Overcast 2200 ft
Dew Point 63 °F
Humidity 92%
Rainfall 1.07 in
Snow Depth Not available.
UV 0.0 out of 12
Pollen 7.20 out of 12
Air Quality Not available.
Flu Activity Sporadic
METAR KCWC 051855Z AUTO 03006KT 2SM +TSRA SCT017 OVC022 19/18 A2995 RMK AO2 LTG DSNT ALQS P0021 T01920180

More Conditions Fewer Conditions

Pressure 29.95 in
Visibility 2.0 miles
Clouds Scattered Clouds 1700 ft
Overcast 2200 ft
Dew Point 63 °F
Humidity 92%
Rainfall 1.07 in
Snow Depth Not available.
UV 0.0 out of 12
Pollen 7.20 out of 12
Air Quality Not available.
Flu Activity Sporadic
METAR KCWC 051855Z AUTO 03006KT 2SM +TSRA SCT017 OVC022 19/18 A2995 RMK AO2 LTG DSNT ALQS P0021 T01920180

More Conditions Fewer Conditions

10-Day Weather Forecast

Almanac

Astronomy

May. 05, 2015 Rise Set
Actual Time
Civil Twilight
Nautical Twilight
Astronomical Twilight
Moon
Length of Visible Light
Length of Day
Tomorrow will be .
, % of the Moon is Illuminated

Today's Extremes

State Highs State Lows

Community

WunderPhotos

Upload Photos

1,818,957 photos uploaded!

WunderBlogs® & News

Nearby

Air Quality

  Air Quality AQ Index Pollutant
Not available.

Snow Depth

Station Depth Elevation

Earthquake Activity

City Distance Mag. Time & Date
Minimum magnitude displayed is 2.5.

Coastal Water Temperatures

Place Temperature

Stations

Nearby Weather Stations

Station Location Temp. Windchill Dew Point Humidity Wind Precip. Elev Updated Type